Time;durP1;ratioP1;P1;durP2;ratioP2;P2;SDS_P1;SDS_P2;PMS_P1;PMS_P2;Temp;Humidity;BMP_temperature;BMP_pressure;BME280_temperature;BME280_humidity;BME280_pressure;Samples;Min_cycle;Max_cycle;Signal;HPM_P1;HPM_P2
2022/01/26 00:00:30;;;;;;;98.03;37.15;;;;;;;;;;6140035;23;20014;-73
2022/01/26 00:05:48;;;;;;;100.63;39.25;;;;;;;;;;6163417;23;20378;-73
2022/01/26 00:08:14;;;;;;;100.00;39.25;;;;;;;;;;6163647;23;20073;-73
2022/01/26 00:10:40;;;;;;;108.50;40.20;;;;;;;;;;6163368;23;20065;-73
2022/01/26 00:13:06;;;;;;;103.30;37.88;;;;;;;;;;6162499;23;20330;-73
2022/01/26 00:15:32;;;;;;;95.25;38.75;;;;;;;;;;6163108;23;19997;-74
2022/01/26 00:17:58;;;;;;;100.85;37.45;;;;;;;;;;6163487;23;20067;-74
2022/01/26 00:20:31;;;;;;;103.32;39.75;;;;;;;;;;6163016;23;20007;-73
2022/01/26 00:23:52;;;;;;;103.30;39.80;;;;;;;;;;6151992;23;20076;-73
2022/01/26 00:26:10;;;;;;;98.68;37.97;;;;;;;;;;6145543;23;20005;-73
2022/01/26 00:29:08;;;;;;;106.07;40.05;;;;;;;;;;6163846;23;19993;-73
2022/01/26 00:39:46;;;;;;;96.55;36.80;;;;;;;;;;6163587;23;20021;-73
2022/01/26 00:42:12;;;;;;;111.22;41.63;;;;;;;;;;6163642;23;20002;-73
2022/01/26 00:44:43;;;;;;;98.78;39.17;;;;;;;;;;6162856;23;20001;-73
2022/01/26 00:47:10;;;;;;;104.20;39.83;;;;;;;;;;6163335;23;20292;-73
2022/01/26 00:49:36;;;;;;;108.28;39.83;;;;;;;;;;6162959;23;20008;-73
2022/01/26 00:52:05;;;;;;;110.45;40.63;;;;;;;;;;6163058;23;20012;-73
2022/01/26 00:54:31;;;;;;;99.82;38.67;;;;;;;;;;6163198;23;20001;-73
2022/01/26 00:56:58;;;;;;;103.13;38.70;;;;;;;;;;6151665;23;20005;-73
2022/01/26 00:59:24;;;;;;;101.85;38.65;;;;;;;;;;6162904;23;19998;-73
2022/01/26 01:01:50;;;;;;;104.75;38.28;;;;;;;;;;6162805;23;20076;-73
2022/01/26 01:04:16;;;;;;;109.07;40.67;;;;;;;;;;6162838;23;19993;-73
2022/01/26 01:06:48;;;;;;;112.90;40.65;;;;;;;;;;6163248;23;19994;-73
2022/01/26 01:09:16;;;;;;;112.75;40.70;;;;;;;;;;6163397;23;20299;-73
2022/01/26 01:11:42;;;;;;;105.45;40.70;;;;;;;;;;6162640;23;20052;-73
2022/01/26 01:14:09;;;;;;;98.18;38.97;;;;;;;;;;6163467;23;20005;-74
2022/01/26 01:16:35;;;;;;;113.25;38.55;;;;;;;;;;6163340;23;19993;-74
2022/01/26 01:24:51;;;;;;;110.85;38.83;;;;;;;;;;6163079;23;20030;-74
2022/01/26 01:30:04;;;;;;;109.22;39.45;;;;;;;;;;6163480;23;20360;-74
2022/01/26 01:32:39;;;;;;;110.90;38.38;;;;;;;;;;6162616;23;20310;-74
2022/01/26 01:35:08;;;;;;;105.18;38.42;;;;;;;;;;6162786;23;20073;-73
2022/01/26 01:37:34;;;;;;;105.05;38.58;;;;;;;;;;6164994;23;20068;-73
2022/01/26 01:40:01;;;;;;;111.18;37.78;;;;;;;;;;6164603;23;20021;-73
2022/01/26 01:42:27;;;;;;;107.63;37.85;;;;;;;;;;6164544;23;20099;-73
2022/01/26 01:44:53;;;;;;;118.50;39.55;;;;;;;;;;6165407;23;20028;-73
2022/01/26 01:47:19;;;;;;;101.70;36.75;;;;;;;;;;6164508;23;20045;-73
2022/01/26 01:49:46;;;;;;;106.63;38.78;;;;;;;;;;6164779;23;20411;-73
2022/01/26 01:52:15;;;;;;;102.65;38.00;;;;;;;;;;6164761;23;20403;-73
2022/01/26 01:54:44;;;;;;;106.47;37.72;;;;;;;;;;6164594;23;20000;-73
2022/01/26 01:57:11;;;;;;;103.25;36.53;;;;;;;;;;6165539;23;20136;-73
2022/01/26 01:59:37;;;;;;;99.03;38.67;;;;;;;;;;6164706;23;19998;-73
2022/01/26 02:02:03;;;;;;;101.45;36.45;;;;;;;;;;6164430;23;20006;-72
2022/01/26 02:04:29;;;;;;;100.82;37.92;;;;;;;;;;6164557;23;19994;-73
2022/01/26 02:06:55;;;;;;;111.68;36.72;;;;;;;;;;6163878;23;20434;-73
2022/01/26 02:09:21;;;;;;;101.72;38.15;;;;;;;;;;6152826;23;20375;-74
2022/01/26 02:11:49;;;;;;;102.97;38.35;;;;;;;;;;6164847;23;20438;-73
2022/01/26 02:14:27;;;;;;;87.88;36.20;;;;;;;;;;6152228;23;20004;-73
2022/01/26 02:55:12;;;;;;;75.68;32.20;;;;;;;;;;6140023;23;20001;-73
2022/01/26 03:00:41;;;;;;;70.57;30.05;;;;;;;;;;6163949;23;20064;-73
2022/01/26 03:03:18;;;;;;;71.68;32.83;;;;;;;;;;6163774;23;20426;-72
2022/01/26 03:05:56;;;;;;;73.28;32.55;;;;;;;;;;6164470;23;19990;-73
2022/01/26 03:08:30;;;;;;;71.80;30.83;;;;;;;;;;6163004;23;19990;-73
2022/01/26 03:11:01;;;;;;;69.00;31.08;;;;;;;;;;6164167;23;20041;-73
2022/01/26 03:13:31;;;;;;;84.82;31.27;;;;;;;;;;6163975;23;20001;-73
2022/01/26 03:16:27;;;;;;;77.65;31.48;;;;;;;;;;6164244;23;19997;-72
2022/01/26 03:21:17;;;;;;;73.75;31.48;;;;;;;;;;6163150;23;20005;-72
2022/01/26 03:29:26;;;;;;;83.05;34.13;;;;;;;;;;6163417;23;20012;-72
2022/01/26 03:32:37;;;;;;;75.75;34.13;;;;;;;;;;6151761;23;20002;-72
2022/01/26 03:34:42;;;;;;;77.70;30.10;;;;;;;;;;6153796;23;20005;-72
2022/01/26 03:37:09;;;;;;;74.20;31.05;;;;;;;;;;6163733;23;20002;-72
2022/01/26 03:39:42;;;;;;;73.07;31.85;;;;;;;;;;6163724;23;20080;-73
2022/01/26 03:42:13;;;;;;;70.50;29.23;;;;;;;;;;6152605;23;20069;-73
2022/01/26 03:44:39;;;;;;;73.20;30.83;;;;;;;;;;6163158;23;20048;-73
2022/01/26 03:47:06;;;;;;;78.78;30.13;;;;;;;;;;6163717;23;19997;-73
2022/01/26 03:49:32;;;;;;;77.88;30.52;;;;;;;;;;6154214;23;19997;-72
2022/01/26 03:51:58;;;;;;;70.97;29.75;;;;;;;;;;6163585;23;20655;-72
2022/01/26 03:54:24;;;;;;;77.82;29.27;;;;;;;;;;6163196;23;20028;-72
2022/01/26 03:56:50;;;;;;;75.13;30.73;;;;;;;;;;6164168;23;19994;-72
2022/01/26 03:59:17;;;;;;;75.93;31.55;;;;;;;;;;6151746;23;20305;-72
2022/01/26 04:01:43;;;;;;;75.15;30.45;;;;;;;;;;6163906;23;19993;-72
2022/01/26 04:04:09;;;;;;;75.80;29.33;;;;;;;;;;6162570;23;20307;-74
2022/01/26 04:06:35;;;;;;;75.88;30.15;;;;;;;;;;6152062;23;20059;-73
2022/01/26 04:09:02;;;;;;;81.55;31.27;;;;;;;;;;6127944;23;19997;-73
2022/01/26 04:11:34;;;;;;;73.05;27.85;;;;;;;;;;6162485;23;20037;-73
2022/01/26 04:14:04;;;;;;;80.10;30.27;;;;;;;;;;6163878;23;20001;-73
2022/01/26 04:16:31;;;;;;;82.32;28.85;;;;;;;;;;6151977;23;19998;-73
2022/01/26 04:18:57;;;;;;;81.45;29.13;;;;;;;;;;6162791;23;20016;-73
2022/01/26 04:26:29;;;;;;;80.75;29.55;;;;;;;;;;6162884;23;20112;-73
2022/01/26 04:29:01;;;;;;;80.28;30.40;;;;;;;;;;6163733;23;20088;-72
2022/01/26 04:31:27;;;;;;;74.63;29.27;;;;;;;;;;6163083;23;20002;-73
2022/01/26 04:33:54;;;;;;;73.85;29.50;;;;;;;;;;6162744;23;20002;-73
2022/01/26 04:36:59;;;;;;;79.57;31.02;;;;;;;;;;6127314;23;20310;-73
2022/01/26 04:39:17;;;;;;;75.80;29.05;;;;;;;;;;6150341;23;20002;-73
2022/01/26 04:41:50;;;;;;;73.85;28.70;;;;;;;;;;6163063;23;20032;-73
2022/01/26 04:44:25;;;;;;;71.05;27.88;;;;;;;;;;6164063;23;20004;-73
2022/01/26 04:46:52;;;;;;;70.97;28.95;;;;;;;;;;6162897;23;19994;-73
2022/01/26 04:49:18;;;;;;;69.75;28.95;;;;;;;;;;6162818;23;20430;-74
2022/01/26 04:51:45;;;;;;;78.00;28.52;;;;;;;;;;6162778;23;20005;-74
2022/01/26 04:54:11;;;;;;;75.03;29.50;;;;;;;;;;6157651;23;20474;-74
2022/01/26 04:56:38;;;;;;;77.93;30.65;;;;;;;;;;6161114;23;19997;-74
2022/01/26 04:59:04;;;;;;;72.40;28.92;;;;;;;;;;6160183;23;20001;-74
2022/01/26 05:01:30;;;;;;;85.60;30.75;;;;;;;;;;6160320;23;20446;-74
2022/01/26 05:03:56;;;;;;;86.50;32.15;;;;;;;;;;6162108;23;19997;-73
2022/01/26 05:06:23;;;;;;;76.75;30.48;;;;;;;;;;6163218;23;20005;-74
2022/01/26 05:08:49;;;;;;;82.40;29.65;;;;;;;;;;6166301;23;19993;-74
2022/01/26 05:11:23;;;;;;;69.65;29.30;;;;;;;;;;6164169;23;20001;-74
2022/01/26 05:13:50;;;;;;;75.00;29.77;;;;;;;;;;6165657;23;19998;-74
2022/01/26 05:16:16;;;;;;;76.85;29.00;;;;;;;;;;6164358;23;19994;-74
2022/01/26 05:18:42;;;;;;;73.97;28.77;;;;;;;;;;6155869;23;20001;-74
2022/01/26 05:21:08;;;;;;;71.57;27.90;;;;;;;;;;6164539;23;20068;-74
2022/01/26 05:23:35;;;;;;;81.18;30.77;;;;;;;;;;6165660;23;20006;-74
2022/01/26 05:26:01;;;;;;;77.63;28.80;;;;;;;;;;6153397;23;20403;-74
2022/01/26 05:28:27;;;;;;;74.32;28.17;;;;;;;;;;6162796;23;20004;-75
2022/01/26 05:30:53;;;;;;;75.18;27.55;;;;;;;;;;6163301;23;20002;-74
2022/01/26 05:33:20;;;;;;;75.78;31.42;;;;;;;;;;6162612;23;20362;-75
2022/01/26 05:35:46;;;;;;;75.85;28.90;;;;;;;;;;6162525;23;20049;-75
2022/01/26 05:38:12;;;;;;;71.35;28.48;;;;;;;;;;6163250;23;20076;-74
2022/01/26 05:40:38;;;;;;;72.40;28.52;;;;;;;;;;6152498;23;20423;-74
2022/01/26 05:43:04;;;;;;;73.82;29.13;;;;;;;;;;6152341;23;20419;-75
2022/01/26 05:45:36;;;;;;;145.57;62.13;;;;;;;;;;6164546;23;19997;-75
2022/01/26 05:48:09;;;;;;;73.28;28.38;;;;;;;;;;6164496;23;20076;-74
2022/01/26 05:50:36;;;;;;;70.18;28.33;;;;;;;;;;6164952;23;20001;-75
2022/01/26 05:53:03;;;;;;;74.60;30.65;;;;;;;;;;6163859;23;19997;-75
2022/01/26 05:55:29;;;;;;;71.63;28.33;;;;;;;;;;6163577;23;20307;-74
2022/01/26 05:57:55;;;;;;;80.22;31.90;;;;;;;;;;6164501;23;20909;-75
2022/01/26 06:00:21;;;;;;;78.68;30.30;;;;;;;;;;6162971;23;20105;-74
2022/01/26 06:02:47;;;;;;;72.03;28.13;;;;;;;;;;6153042;23;20013;-74
2022/01/26 06:05:13;;;;;;;82.85;30.67;;;;;;;;;;6162937;23;20028;-75
2022/01/26 06:07:39;;;;;;;67.70;28.80;;;;;;;;;;6162730;23;20067;-75
2022/01/26 06:10:05;;;;;;;80.38;32.03;;;;;;;;;;6162713;23;20002;-75
2022/01/26 06:12:34;;;;;;;74.95;31.30;;;;;;;;;;6161569;23;20005;-75
2022/01/26 06:15:01;;;;;;;79.65;31.20;;;;;;;;;;6163681;23;20024;-75
2022/01/26 06:17:28;;;;;;;72.53;31.30;;;;;;;;;;6164337;23;20059;-74
2022/01/26 06:19:54;;;;;;;79.97;30.15;;;;;;;;;;6162758;23;20001;-74
2022/01/26 06:22:20;;;;;;;77.05;31.45;;;;;;;;;;6162899;23;20406;-74
2022/01/26 06:24:46;;;;;;;75.82;31.65;;;;;;;;;;6164246;23;20010;-74
2022/01/26 06:27:12;;;;;;;79.20;33.08;;;;;;;;;;6153239;23;20056;-75
2022/01/26 06:29:38;;;;;;;82.93;33.83;;;;;;;;;;6163195;23;20012;-74
2022/01/26 06:32:05;;;;;;;86.70;33.85;;;;;;;;;;6161988;23;20024;-74
2022/01/26 06:34:31;;;;;;;73.85;32.10;;;;;;;;;;6164380;23;20004;-74
2022/01/26 06:36:57;;;;;;;80.15;33.47;;;;;;;;;;6164402;23;19997;-74
2022/01/26 06:39:23;;;;;;;81.60;34.40;;;;;;;;;;6151411;23;20005;-74
2022/01/26 06:41:53;;;;;;;87.65;36.65;;;;;;;;;;6164593;23;19994;-74
2022/01/26 06:44:28;;;;;;;94.90;39.72;;;;;;;;;;6163866;23;19994;-75
2022/01/26 06:47:13;;;;;;;86.43;38.15;;;;;;;;;;6152468;23;20076;-75
2022/01/26 06:49:39;;;;;;;93.55;37.95;;;;;;;;;;6152988;23;19998;-74
2022/01/26 06:52:06;;;;;;;90.80;35.72;;;;;;;;;;6163817;23;19997;-74
2022/01/26 06:54:32;;;;;;;86.40;38.28;;;;;;;;;;6163004;23;20077;-74
2022/01/26 06:56:58;;;;;;;82.38;35.13;;;;;;;;;;6164504;23;19997;-74
2022/01/26 06:59:24;;;;;;;90.95;37.58;;;;;;;;;;6161515;23;19997;-75
2022/01/26 07:01:51;;;;;;;96.38;39.08;;;;;;;;;;6163447;23;20076;-74
2022/01/26 07:04:17;;;;;;;84.70;36.78;;;;;;;;;;6163558;23;20002;-74
2022/01/26 07:06:43;;;;;;;110.20;47.15;;;;;;;;;;6163413;23;19998;-75
2022/01/26 07:09:09;;;;;;;89.60;36.30;;;;;;;;;;6164257;23;19998;-74
2022/01/26 07:11:35;;;;;;;82.45;36.75;;;;;;;;;;6162449;23;20037;-74
2022/01/26 07:14:06;;;;;;;94.60;38.80;;;;;;;;;;6163027;23;20084;-74
2022/01/26 07:19:50;;;;;;;104.75;42.13;;;;;;;;;;6162482;23;20024;-74
2022/01/26 07:33:15;;;;;;;127.18;51.13;;;;;;;;;;6179611;23;20032;-73
2022/01/26 07:35:41;;;;;;;119.75;50.50;;;;;;;;;;6190713;23;20060;-73
2022/01/26 07:38:07;;;;;;;118.88;49.63;;;;;;;;;;6191306;23;20012;-73
2022/01/26 07:40:33;;;;;;;116.32;49.65;;;;;;;;;;6192219;23;20012;-73
2022/01/26 07:42:59;;;;;;;121.70;50.90;;;;;;;;;;6192110;23;20048;-73
2022/01/26 07:45:26;;;;;;;107.47;45.92;;;;;;;;;;6192346;23;20001;-78
2022/01/26 07:47:54;;;;;;;113.32;48.38;;;;;;;;;;6191729;23;20001;-75
2022/01/26 07:50:21;;;;;;;112.63;45.95;;;;;;;;;;6181490;23;20032;-76
2022/01/26 07:52:47;;;;;;;109.07;47.00;;;;;;;;;;6192822;23;20005;-75
2022/01/26 07:55:17;;;;;;;105.28;45.90;;;;;;;;;;6193202;23;20001;-75
2022/01/26 07:57:44;;;;;;;97.45;42.08;;;;;;;;;;6192785;23;20012;-75
2022/01/26 08:00:10;;;;;;;102.55;42.85;;;;;;;;;;6193728;23;20001;-75
2022/01/26 08:02:36;;;;;;;104.45;43.42;;;;;;;;;;6192791;23;20004;-75
2022/01/26 08:05:03;;;;;;;95.78;40.17;;;;;;;;;;6193320;23;20056;-75
2022/01/26 08:07:29;;;;;;;103.70;42.47;;;;;;;;;;6192967;23;20417;-76
2022/01/26 08:09:55;;;;;;;99.20;40.78;;;;;;;;;;6156218;23;20013;-75
2022/01/26 08:12:21;;;;;;;87.00;39.90;;;;;;;;;;6192720;23;20001;-77
2022/01/26 08:14:47;;;;;;;88.97;42.08;;;;;;;;;;6193604;23;20005;-74
2022/01/26 08:17:17;;;;;;;93.07;42.25;;;;;;;;;;6192420;23;19997;-73
2022/01/26 08:19:43;;;;;;;94.95;41.60;;;;;;;;;;6193122;23;20624;-79
2022/01/26 08:22:16;;;;;;;94.20;40.72;;;;;;;;;;6192472;23;20048;-78
2022/01/26 08:24:43;;;;;;;90.75;43.20;;;;;;;;;;6192719;23;20005;-76
2022/01/26 08:27:12;;;;;;;98.35;41.10;;;;;;;;;;6192632;23;20001;-74
2022/01/26 08:29:45;;;;;;;87.55;38.80;;;;;;;;;;6181169;23;20005;-73
2022/01/26 08:32:11;;;;;;;91.95;38.85;;;;;;;;;;6192544;23;20035;-73
2022/01/26 08:34:37;;;;;;;85.53;38.55;;;;;;;;;;6190675;23;20434;-74
2022/01/26 08:37:04;;;;;;;84.40;39.58;;;;;;;;;;6180987;23;20012;-74
2022/01/26 08:39:30;;;;;;;81.55;38.50;;;;;;;;;;6192578;23;20313;-74
2022/01/26 08:41:56;;;;;;;85.45;39.40;;;;;;;;;;6192526;23;20001;-73
2022/01/26 08:44:23;;;;;;;81.15;37.50;;;;;;;;;;6180852;23;20029;-74
2022/01/26 08:46:50;;;;;;;80.43;36.22;;;;;;;;;;6191999;23;20321;-74
2022/01/26 08:49:16;;;;;;;81.25;36.05;;;;;;;;;;6191735;23;20325;-74
2022/01/26 08:51:42;;;;;;;77.55;37.10;;;;;;;;;;6192867;23;20414;-74
2022/01/26 08:54:10;;;;;;;71.88;37.33;;;;;;;;;;6192871;23;20471;-74
2022/01/26 08:56:37;;;;;;;67.60;34.85;;;;;;;;;;6193087;23;19997;-74
2022/01/26 08:59:03;;;;;;;74.93;34.33;;;;;;;;;;6192685;23;19997;-74
2022/01/26 09:01:29;;;;;;;74.63;35.80;;;;;;;;;;6192026;23;20430;-74
2022/01/26 09:03:55;;;;;;;72.60;36.70;;;;;;;;;;6190696;23;20124;-74
2022/01/26 09:06:21;;;;;;;76.07;37.00;;;;;;;;;;6191921;23;20434;-74
2022/01/26 09:08:55;;;;;;;80.60;39.58;;;;;;;;;;6179880;23;20553;-74
2022/01/26 09:11:22;;;;;;;73.55;36.55;;;;;;;;;;6192000;23;20085;-76
2022/01/26 09:13:56;;;;;;;76.10;38.47;;;;;;;;;;6192361;23;20001;-77
2022/01/26 09:16:24;;;;;;;79.50;37.97;;;;;;;;;;6191877;23;20024;-73
2022/01/26 09:18:53;;;;;;;78.75;39.42;;;;;;;;;;6192145;23;20127;-74
2022/01/26 09:21:21;;;;;;;76.88;37.80;;;;;;;;;;6180014;23;20140;-73
2022/01/26 09:23:47;;;;;;;78.88;39.03;;;;;;;;;;6180416;23;20021;-73
2022/01/26 09:26:13;;;;;;;87.90;41.03;;;;;;;;;;6192132;23;20021;-73
2022/01/26 09:28:39;;;;;;;82.35;40.17;;;;;;;;;;6191989;23;19997;-73
2022/01/26 09:31:05;;;;;;;91.65;41.60;;;;;;;;;;6191162;23;20012;-74
2022/01/26 09:33:31;;;;;;;92.70;39.75;;;;;;;;;;6192870;23;20013;-75
2022/01/26 09:35:57;;;;;;;90.53;43.60;;;;;;;;;;6192493;23;20494;-72
2022/01/26 09:38:24;;;;;;;86.03;42.78;;;;;;;;;;6192225;23;19997;-72
2022/01/26 09:40:50;;;;;;;98.07;44.83;;;;;;;;;;6191989;23;20002;-72
2022/01/26 09:43:17;;;;;;;95.80;41.65;;;;;;;;;;6190389;23;20005;-72
2022/01/26 09:45:44;;;;;;;97.78;42.95;;;;;;;;;;6192144;23;20024;-72
2022/01/26 09:48:12;;;;;;;85.60;42.67;;;;;;;;;;6192493;23;20012;-72
2022/01/26 09:50:38;;;;;;;96.20;43.28;;;;;;;;;;6192470;23;20008;-72
2022/01/26 09:53:04;;;;;;;92.28;41.50;;;;;;;;;;6190930;23;20005;-72
2022/01/26 09:55:30;;;;;;;86.35;40.08;;;;;;;;;;6191815;23;20008;-72
2022/01/26 09:57:59;;;;;;;83.65;38.78;;;;;;;;;;6193734;23;19993;-73
2022/01/26 10:00:26;;;;;;;91.68;43.88;;;;;;;;;;6192625;23;20009;-72
2022/01/26 10:02:56;;;;;;;87.18;42.53;;;;;;;;;;6182663;23;20013;-72
2022/01/26 10:05:23;;;;;;;94.10;41.58;;;;;;;;;;6194301;23;20437;-72
2022/01/26 10:07:55;;;;;;;95.90;43.53;;;;;;;;;;6193760;23;19997;-72
2022/01/26 10:15:39;;;;;;;84.28;39.15;;;;;;;;;;6194308;23;20016;-72
2022/01/26 10:18:07;;;;;;;76.43;35.72;;;;;;;;;;6182702;23;20028;-74
2022/01/26 10:20:40;;;;;;;75.35;36.00;;;;;;;;;;6193718;23;20031;-72
2022/01/26 10:23:07;;;;;;;78.20;35.85;;;;;;;;;;6192852;23;20001;-72
2022/01/26 10:25:33;;;;;;;70.88;35.92;;;;;;;;;;6193736;23;20055;-72
2022/01/26 10:27:59;;;;;;;79.20;36.70;;;;;;;;;;6193452;23;20001;-72
2022/01/26 10:30:25;;;;;;;68.30;33.33;;;;;;;;;;6193775;23;20036;-72
2022/01/26 10:32:51;;;;;;;75.38;35.45;;;;;;;;;;6193847;23;20001;-72
2022/01/26 10:35:17;;;;;;;79.15;35.65;;;;;;;;;;6194088;23;20009;-72
2022/01/26 10:37:55;;;;;;;81.30;38.20;;;;;;;;;;6194224;23;20008;-75
2022/01/26 10:40:24;;;;;;;95.03;44.55;;;;;;;;;;6185899;23;20005;-72
2022/01/26 10:43:00;;;;;;;77.28;37.58;;;;;;;;;;6193178;23;20008;-73
2022/01/26 10:45:34;;;;;;;70.97;34.72;;;;;;;;;;6193740;23;19993;-73
2022/01/26 10:48:11;;;;;;;77.80;36.00;;;;;;;;;;6181462;23;20001;-73
2022/01/26 10:53:07;;;;;;;82.03;38.42;;;;;;;;;;6193587;23;20012;-73
2022/01/26 10:55:34;;;;;;;84.95;37.97;;;;;;;;;;6190551;23;19997;-72
2022/01/26 10:58:02;;;;;;;74.70;36.50;;;;;;;;;;6177838;23;20442;-72
2022/01/26 11:00:31;;;;;;;77.68;35.55;;;;;;;;;;6191415;23;20005;-72
2022/01/26 11:02:57;;;;;;;86.18;36.85;;;;;;;;;;6188061;23;20381;-73
2022/01/26 11:05:24;;;;;;;88.57;36.40;;;;;;;;;;6191917;23;20476;-75
2022/01/26 11:07:50;;;;;;;74.30;33.90;;;;;;;;;;6189542;23;20001;-75
2022/01/26 11:10:17;;;;;;;70.38;33.17;;;;;;;;;;6179892;23;20001;-73
2022/01/26 11:12:44;;;;;;;75.43;33.85;;;;;;;;;;6192538;23;20032;-73
2022/01/26 11:15:14;;;;;;;75.32;31.35;;;;;;;;;;6191623;23;20001;-77
2022/01/26 11:17:43;;;;;;;69.90;33.15;;;;;;;;;;6191994;23;20004;-76
2022/01/26 11:20:16;;;;;;;73.80;34.05;;;;;;;;;;6193312;23;20008;-74
2022/01/26 11:22:49;;;;;;;66.90;33.38;;;;;;;;;;6193184;23;20001;-74
2022/01/26 11:25:16;;;;;;;74.47;32.47;;;;;;;;;;6194101;23;20381;-74
2022/01/26 11:27:42;;;;;;;66.43;33.83;;;;;;;;;;6193298;23;20001;-74
2022/01/26 11:30:16;;;;;;;62.88;31.65;;;;;;;;;;6192021;23;20001;-74
2022/01/26 11:32:51;;;;;;;71.97;32.05;;;;;;;;;;6193889;23;20484;-78
2022/01/26 11:35:19;;;;;;;72.82;30.95;;;;;;;;;;6193211;23;20012;-73
2022/01/26 11:37:50;;;;;;;69.03;33.80;;;;;;;;;;6193295;23;19997;-73
2022/01/26 11:46:09;;;;;;;75.43;34.60;;;;;;;;;;6193369;23;20105;-72
2022/01/26 11:48:35;;;;;;;95.15;42.55;;;;;;;;;;6193180;23;20025;-72
2022/01/26 11:51:02;;;;;;;75.93;33.17;;;;;;;;;;6193386;23;20001;-73
2022/01/26 11:53:29;;;;;;;80.10;35.08;;;;;;;;;;6191582;23;20001;-74
2022/01/26 11:56:02;;;;;;;58.90;31.67;;;;;;;;;;6192297;23;20072;-74
2022/01/26 11:58:39;;;;;;;90.60;44.38;;;;;;;;;;6190938;23;20016;-75
2022/01/26 12:01:17;;;;;;;72.75;31.10;;;;;;;;;;6193133;23;20001;-75
2022/01/26 12:03:55;;;;;;;61.15;30.10;;;;;;;;;;6192719;23;20040;-73
2022/01/26 12:06:29;;;;;;;60.97;31.15;;;;;;;;;;6181226;23;20001;-75
2022/01/26 12:08:58;;;;;;;69.55;31.92;;;;;;;;;;6192851;23;19997;-74
2022/01/26 12:11:25;;;;;;;67.75;30.05;;;;;;;;;;6191466;23;20020;-74
2022/01/26 12:13:58;;;;;;;68.28;31.60;;;;;;;;;;6192135;23;20008;-73
2022/01/26 12:16:32;;;;;;;58.80;29.08;;;;;;;;;;6193246;23;20004;-73
2022/01/26 12:19:11;;;;;;;57.80;27.50;;;;;;;;;;6192874;23;20001;-73
2022/01/26 12:43:20;;;;;;;55.70;28.85;;;;;;;;;;6193108;23;20084;-73
2022/01/26 12:45:47;;;;;;;61.63;29.70;;;;;;;;;;6192226;23;20004;-73
2022/01/26 12:48:13;;;;;;;71.13;30.33;;;;;;;;;;6192655;23;20056;-74
2022/01/26 12:50:41;;;;;;;63.33;28.88;;;;;;;;;;6181018;23;20105;-74
2022/01/26 12:53:07;;;;;;;67.28;31.02;;;;;;;;;;6180769;23;20055;-74
2022/01/26 12:55:36;;;;;;;69.70;32.15;;;;;;;;;;6193420;23;20017;-74
2022/01/26 12:58:03;;;;;;;63.67;29.30;;;;;;;;;;6192091;23;20008;-73
2022/01/26 13:00:40;;;;;;;69.20;29.30;;;;;;;;;;6180930;23;20009;-73
2022/01/26 13:03:09;;;;;;;66.00;29.38;;;;;;;;;;6193216;23;20001;-73
2022/01/26 13:05:36;;;;;;;66.68;30.45;;;;;;;;;;6192467;23;20003;-74
2022/01/26 13:08:06;;;;;;;68.45;30.92;;;;;;;;;;6180687;23;20005;-73
2022/01/26 13:10:33;;;;;;;66.75;29.92;;;;;;;;;;6192485;23;20005;-73
2022/01/26 13:13:16;;;;;;;60.22;27.65;;;;;;;;;;6192738;23;20005;-74
2022/01/26 13:16:06;;;;;;;57.10;28.35;;;;;;;;;;6192711;23;19997;-73
2022/01/26 13:19:05;;;;;;;56.33;25.67;;;;;;;;;;6192745;23;20068;-73
2022/01/26 13:27:12;;;;;;;62.40;28.83;;;;;;;;;;6192552;23;20438;-74
2022/01/26 13:29:55;;;;;;;63.08;26.40;;;;;;;;;;6192215;23;20039;-73
2022/01/26 13:40:54;;;;;;;54.17;27.75;;;;;;;;;;6194700;23;20013;-74
2022/01/26 13:51:38;;;;;;;56.13;28.20;;;;;;;;;;6192423;23;20013;-73
2022/01/26 13:59:19;;;;;;;66.35;27.48;;;;;;;;;;6194018;23;20005;-73
2022/01/26 14:01:47;;;;;;;53.35;26.88;;;;;;;;;;6194890;23;20003;-74
2022/01/26 14:04:18;;;;;;;62.67;27.70;;;;;;;;;;6193377;23;20008;-73
2022/01/26 14:06:44;;;;;;;65.38;27.85;;;;;;;;;;6194641;23;19997;-73
2022/01/26 14:09:10;;;;;;;58.75;27.48;;;;;;;;;;6193900;23;20514;-73
2022/01/26 14:11:36;;;;;;;54.50;28.13;;;;;;;;;;6193267;23;20005;-75
2022/01/26 14:14:02;;;;;;;62.88;29.30;;;;;;;;;;6193536;23;19997;-73
2022/01/26 14:16:36;;;;;;;54.80;26.98;;;;;;;;;;6194601;23;20455;-73
2022/01/26 14:19:28;;;;;;;61.17;28.73;;;;;;;;;;6193778;23;19993;-73
2022/01/26 14:24:28;;;;;;;59.67;28.65;;;;;;;;;;6193531;23;20009;-73
2022/01/26 14:26:58;;;;;;;53.78;26.50;;;;;;;;;;6193836;23;20005;-73
2022/01/26 14:55:51;;;;;;;64.43;29.30;;;;;;;;;;6193743;23;20436;-77
2022/01/26 15:29:54;;;;;;;56.33;26.55;;;;;;;;;;6193444;23;20015;-73
2022/01/26 15:41:28;;;;;;;59.85;25.42;;;;;;;;;;6191959;23;20019;-73
2022/01/26 16:17:07;;;;;;;56.70;23.90;;;;;;;;;;6192019;23;20521;-74
2022/01/26 16:52:32;;;;;;;46.53;21.38;;;;;;;;;;6192183;23;20100;-72
2022/01/26 17:46:52;;;;;;;44.17;20.92;;;;;;;;;;6192823;23;20133;-75
2022/01/26 18:16:37;;;;;;;46.13;23.63;;;;;;;;;;6190782;23;20009;-74
2022/01/26 18:33:01;;;;;;;43.95;18.17;;;;;;;;;;6192198;23;20144;-75
2022/01/26 18:49:18;;;;;;;48.08;19.52;;;;;;;;;;6193777;23;20112;-75
2022/01/26 18:51:52;;;;;;;45.13;20.33;;;;;;;;;;6193700;23;20017;-78
2022/01/26 18:54:19;;;;;;;41.53;18.02;;;;;;;;;;6193291;23;20008;-76
2022/01/26 18:56:46;;;;;;;40.15;18.38;;;;;;;;;;6193417;23;20004;-79
2022/01/26 18:59:13;;;;;;;39.75;20.10;;;;;;;;;;6192123;23;20514;-77
2022/01/26 19:01:39;;;;;;;52.88;22.73;;;;;;;;;;6192664;23;20014;-80
2022/01/26 19:04:05;;;;;;;47.25;21.15;;;;;;;;;;6155146;23;20016;-76
2022/01/26 19:06:32;;;;;;;50.95;22.67;;;;;;;;;;6196370;23;20004;-75
2022/01/26 19:08:58;;;;;;;46.75;20.63;;;;;;;;;;6197589;23;19997;-75
2022/01/26 19:11:24;;;;;;;41.92;20.98;;;;;;;;;;6195597;23;20005;-76
2022/01/26 19:13:51;;;;;;;45.33;21.65;;;;;;;;;;6196962;23;20005;-76
2022/01/26 19:19:07;;;;;;;44.42;19.98;;;;;;;;;;6195393;23;20611;-76
2022/01/26 19:26:50;;;;;;;46.10;20.90;;;;;;;;;;6194196;23;20064;-75
2022/01/26 19:50:48;;;;;;;41.28;19.80;;;;;;;;;;6189308;23;20417;-74
2022/01/26 19:53:14;;;;;;;44.25;19.25;;;;;;;;;;6181898;23;20429;-78
2022/01/26 19:55:40;;;;;;;51.47;19.83;;;;;;;;;;6192797;23;20413;-74
2022/01/26 19:58:08;;;;;;;41.38;19.27;;;;;;;;;;6193319;23;20004;-76
2022/01/26 20:00:37;;;;;;;44.53;19.25;;;;;;;;;;6193051;23;20311;-74
2022/01/26 20:03:04;;;;;;;43.25;21.52;;;;;;;;;;6181259;23;20048;-75
2022/01/26 20:05:33;;;;;;;49.45;19.92;;;;;;;;;;6194049;23;20396;-76
2022/01/26 20:08:06;;;;;;;43.65;20.33;;;;;;;;;;6158366;23;20001;-73
2022/01/26 20:10:35;;;;;;;51.53;19.23;;;;;;;;;;6191902;23;20439;-75
2022/01/26 20:13:04;;;;;;;42.30;18.27;;;;;;;;;;6193829;23;20004;-74
2022/01/26 20:15:31;;;;;;;51.00;21.40;;;;;;;;;;6193120;23;20388;-76
2022/01/26 20:17:57;;;;;;;46.97;19.30;;;;;;;;;;6193183;23;20001;-74
2022/01/26 20:20:25;;;;;;;43.90;20.38;;;;;;;;;;6181844;23;20013;-74
2022/01/26 20:22:51;;;;;;;50.30;19.63;;;;;;;;;;6178474;23;20374;-75
2022/01/26 20:25:18;;;;;;;49.92;20.90;;;;;;;;;;6188489;23;19997;-75
2022/01/26 20:27:45;;;;;;;46.80;19.60;;;;;;;;;;6188303;23;20019;-77
2022/01/26 20:30:19;;;;;;;48.03;19.23;;;;;;;;;;6190787;23;19997;-74
2022/01/26 20:32:47;;;;;;;42.90;19.85;;;;;;;;;;6187833;23;19997;-78
2022/01/26 20:35:14;;;;;;;52.78;20.00;;;;;;;;;;6187255;23;19997;-76
2022/01/26 20:37:40;;;;;;;48.95;20.05;;;;;;;;;;6188154;23;20005;-76
2022/01/26 20:40:06;;;;;;;47.95;21.00;;;;;;;;;;6150800;23;20367;-75
2022/01/26 20:42:33;;;;;;;45.30;20.45;;;;;;;;;;6189122;23;20008;-75
2022/01/26 20:45:00;;;;;;;44.10;19.55;;;;;;;;;;6189030;23;19997;-75
2022/01/26 20:47:26;;;;;;;51.63;20.73;;;;;;;;;;6188330;23;19997;-78
2022/01/26 20:49:52;;;;;;;47.90;23.23;;;;;;;;;;6187208;23;20390;-75
2022/01/26 20:52:18;;;;;;;46.25;20.25;;;;;;;;;;6188129;23;20036;-75
2022/01/26 20:54:45;;;;;;;45.75;21.15;;;;;;;;;;6187750;23;20485;-79
2022/01/26 20:57:11;;;;;;;44.85;21.27;;;;;;;;;;6187694;23;20318;-76
2022/01/26 20:59:37;;;;;;;46.00;21.45;;;;;;;;;;6188832;23;19997;-75
2022/01/26 21:02:03;;;;;;;43.58;21.42;;;;;;;;;;6187505;23;20418;-75
2022/01/26 21:04:29;;;;;;;45.28;21.67;;;;;;;;;;6186931;23;20001;-75
2022/01/26 21:06:55;;;;;;;52.47;23.45;;;;;;;;;;6187759;23;20020;-75
2022/01/26 21:09:21;;;;;;;46.38;21.75;;;;;;;;;;6185431;23;19998;-75
2022/01/26 21:11:47;;;;;;;40.22;20.52;;;;;;;;;;6188332;23;20067;-77
2022/01/26 21:14:13;;;;;;;47.03;22.90;;;;;;;;;;6188689;23;20063;-76
2022/01/26 21:16:40;;;;;;;51.35;23.63;;;;;;;;;;6176742;23;20210;-76
2022/01/26 21:19:06;;;;;;;69.45;32.83;;;;;;;;;;6190346;23;20129;-76
2022/01/26 21:21:33;;;;;;;60.83;26.58;;;;;;;;;;6189842;23;20032;-76
2022/01/26 21:23:59;;;;;;;49.55;22.25;;;;;;;;;;6188173;23;20008;-75
2022/01/26 21:26:25;;;;;;;52.90;23.08;;;;;;;;;;6186797;23;19997;-74